»·PEaware :: N123AB KVNY-KSNA

N123AB :: KVNY-KSNA

FLIGHT INFORMATION

Flight Status: Arrived
Operator: Privately registered:
United States
More flights under this callsign
Pilot: Gopalakrishna Pillai Sulekha S. (22834)
Aircraft: CESSNA 172 SKYHAWK
(C172)
More flights by this aircraft type
Origin: KVNY Van Nuys
United States
Destination: KSNA John Wayne-Orange Co
United States
More flights between these airports :: More routes between these airports
Route:
File this flight plan on PilotEdge
Remarks: simple flight plan
Altitude:
(Current/Filed)
5,500ft
Speed:
(Current/Filed)
120kts
Departed: 02-Feb-19 09:01 PM
Arrived: 02-Feb-19 09:43 PM
Distance/Time
Traveled:
44nm/0:42
Distance/Time
To Go:
Arrived

Flight Plot

Page will automatically refresh every two minutes.


Map Options




Map Legend


Flown Route
Filed Route
Departure Airport
Arrival Airport
Navaid (VOR, NDB)
Fix

Horizontal Profiles

Position Reports

Time Latitude Longitude Heading Altitude Ground
Speed
02-Feb-19 20:53 34.210862 -118.492017 79 781ft 0kts
02-Feb-19 20:54 34.210862 -118.492017 79 781ft 0kts
02-Feb-19 20:55 34.210862 -118.492017 79 781ft 0kts
02-Feb-19 20:56 34.211338 -118.491647 350 781ft 17kts
02-Feb-19 20:57 34.218298 -118.492326 1 798ft 22kts
02-Feb-19 20:58 34.218684 -118.492120 56 798ft 0kts
02-Feb-19 20:59 34.218120 -118.491146 176 797ft 29kts
02-Feb-19 21:00 34.196675 -118.490348 195 1323ft 108kts
02-Feb-19 21:01 34.171514 -118.503451 209 2379ft 86kts
02-Feb-19 21:02 34.155624 -118.515983 213 3247ft 61kts
02-Feb-19 21:03 34.139183 -118.529469 217 3975ft 82kts
02-Feb-19 21:04 34.124494 -118.548363 240 4858ft 68kts
02-Feb-19 21:05 34.116410 -118.569020 245 5493ft 83kts
02-Feb-19 21:06 34.099287 -118.574865 101 5493ft 69kts
02-Feb-19 21:07 34.105260 -118.553950 79 5499ft 66kts
02-Feb-19 21:08 34.106545 -118.532203 83 5499ft 63kts
02-Feb-19 21:09 34.116157 -118.510655 40 5506ft 92kts
02-Feb-19 21:10 34.139082 -118.508252 294 5565ft 104kts
02-Feb-19 21:11 34.120051 -118.528652 183 5564ft 109kts
02-Feb-19 21:12 34.092699 -118.516615 155 5560ft 95kts
02-Feb-19 21:13 34.070690 -118.504221 155 5561ft 80kts
02-Feb-19 21:14 34.051159 -118.493185 155 5564ft 77kts
02-Feb-19 21:15 34.031421 -118.482028 155 5564ft 78kts
02-Feb-19 21:16 34.011131 -118.471116 156 5565ft 83kts
02-Feb-19 21:17 33.988069 -118.459277 157 5565ft 97kts
02-Feb-19 21:18 33.962073 -118.446501 158 5564ft 102kts
02-Feb-19 21:19 33.935808 -118.432863 142 5564ft 103kts
02-Feb-19 21:20 33.913935 -118.410175 139 5564ft 104kts
02-Feb-19 21:21 33.891979 -118.387144 138 5564ft 104kts
02-Feb-19 21:22 33.870203 -118.364301 138 5564ft 104kts
02-Feb-19 21:23 33.848604 -118.341100 137 5564ft 104kts
02-Feb-19 21:24 33.827109 -118.317741 137 5564ft 104kts
02-Feb-19 21:25 33.805667 -118.294438 137 5564ft 104kts
02-Feb-19 21:26 33.784161 -118.271064 137 5564ft 104kts
02-Feb-19 21:27 33.762683 -118.247690 136 5563ft 104kts
02-Feb-19 21:28 33.748243 -118.217810 117 5564ft 104kts
02-Feb-19 21:29 33.734631 -118.186871 117 5564ft 104kts
02-Feb-19 21:30 33.721117 -118.156150 117 5564ft 104kts
02-Feb-19 21:31 33.708433 -118.127313 117 5562ft 90kts
02-Feb-19 21:32 33.696672 -118.100537 117 5363ft 103kts
02-Feb-19 21:33 33.683235 -118.070025 117 4485ft 101kts
02-Feb-19 21:34 33.670280 -118.040607 117 3525ft 97kts
02-Feb-19 21:35 33.657829 -118.012079 112 2522ft 96kts
02-Feb-19 21:36 33.660569 -117.979729 80 1524ft 101kts
02-Feb-19 21:37 33.664546 -117.950130 80 1093ft 69kts
02-Feb-19 21:38 33.667662 -117.927575 80 1016ft 77kts
02-Feb-19 21:39 33.670493 -117.899715 85 919ft 86kts
02-Feb-19 21:40 33.682079 -117.878555 37 525ft 78kts
02-Feb-19 21:41 33.683907 -117.864513 175 218ft 64kts
02-Feb-19 21:42 33.675817 -117.869481 301 50ft 9kts
02-Feb-19 21:43 33.676394 -117.870816 141 50ft 16kts
02-Feb-19 21:44 33.676287 -117.870705 131 50ft 0kts

Navigation Log

Ident Type
Flight plan parsing failed, navigation log unavailable